createdAt,value
2018-04-09T00:00:53.209Z,17.50
2018-04-09T00:03:21.717Z,19.43
2018-04-09T00:05:50.867Z,18.08
2018-04-09T00:08:19.431Z,16.97
2018-04-09T00:10:48.162Z,19.93
2018-04-09T00:13:16.621Z,18.00
2018-04-09T00:15:45.091Z,17.30
2018-04-09T00:18:13.606Z,18.13
2018-04-09T00:20:42.046Z,18.47
2018-04-09T00:23:10.519Z,16.80
2018-04-09T00:25:38.974Z,16.83
2018-04-09T00:28:07.454Z,17.20
2018-04-09T00:30:36.166Z,15.60
2018-04-09T00:33:05.324Z,15.45
2018-04-09T00:35:34.819Z,15.87
2018-04-09T00:38:03.522Z,15.90
2018-04-09T00:40:32.058Z,16.50
2018-04-09T00:43:00.505Z,15.03
2018-04-09T00:45:29.990Z,14.35
2018-04-09T00:47:58.458Z,13.53
2018-04-09T00:50:27.167Z,13.43
2018-04-09T00:52:55.844Z,12.43
2018-04-09T00:55:24.422Z,14.37
2018-04-09T00:57:53.710Z,13.27
2018-04-09T01:00:22.912Z,13.97
2018-04-09T01:02:51.616Z,14.13
2018-04-09T01:05:19.884Z,13.70
2018-04-09T01:07:48.175Z,14.87
2018-04-09T01:10:17.037Z,15.32
2018-04-09T01:12:46.591Z,14.17
2018-04-09T01:15:15.738Z,13.60
2018-04-09T01:17:44.466Z,13.73
2018-04-09T01:20:14.442Z,12.27
2018-04-09T01:22:44.054Z,15.18
2018-04-09T01:25:12.482Z,14.50
2018-04-09T01:27:40.925Z,13.70
2018-04-09T01:30:10.389Z,13.30
2018-04-09T01:32:39.120Z,14.15
2018-04-09T01:35:07.542Z,12.60
2018-04-09T01:37:37.133Z,12.82
2018-04-09T01:40:05.007Z,12.80
2018-04-09T01:42:33.513Z,12.93
2018-04-09T01:45:02.714Z,12.97
2018-04-09T01:47:31.430Z,12.13
2018-04-09T01:50:00.222Z,11.53
2018-04-09T01:52:28.662Z,12.70
2018-04-09T01:54:57.865Z,12.87
2018-04-09T01:57:26.569Z,12.90
2018-04-09T01:59:55.258Z,13.20
2018-04-09T02:02:23.870Z,12.00
2018-04-09T02:04:52.637Z,12.45
2018-04-09T02:07:22.109Z,11.60
2018-04-09T02:09:51.321Z,11.33
2018-04-09T02:12:19.798Z,10.73
2018-04-09T02:14:48.238Z,11.67
2018-04-09T02:17:16.613Z,10.80
2018-04-09T02:19:45.337Z,10.35
2018-04-09T02:22:14.044Z,10.55
2018-04-09T02:24:43.525Z,10.95
2018-04-09T02:27:12.717Z,10.30
2018-04-09T02:29:41.272Z,10.80
2018-04-09T02:32:09.704Z,10.67
2018-04-09T02:34:38.150Z,10.57
2018-04-09T02:37:06.867Z,9.17
2018-04-09T02:39:35.306Z,10.20
2018-04-09T02:42:03.743Z,9.90
2018-04-09T02:44:32.379Z,10.07
2018-04-09T02:47:01.577Z,10.13
2018-04-09T02:49:30.295Z,10.02
2018-04-09T02:51:58.847Z,9.40
2018-04-09T02:54:28.054Z,8.67
2018-04-09T02:56:56.764Z,8.85
2018-04-09T02:59:26.246Z,9.02
2018-04-09T03:01:55.053Z,8.25
2018-04-09T03:04:23.268Z,8.57
2018-04-09T03:06:51.742Z,8.30
2018-04-09T03:09:20.533Z,7.87
2018-04-09T03:11:49.678Z,8.53
2018-04-09T03:14:18.110Z,7.00
2018-04-09T03:16:46.826Z,8.23
2018-04-09T03:19:16.021Z,8.33
2018-04-09T03:21:44.736Z,7.30
2018-04-09T03:24:13.446Z,6.78
2018-04-09T03:26:43.027Z,7.05
2018-04-09T03:29:11.750Z,8.27
2018-04-09T03:31:43.168Z,8.10
2018-04-09T03:34:11.952Z,6.90
2018-04-09T03:36:41.426Z,7.17
2018-04-09T03:39:10.618Z,7.93
2018-04-09T03:41:39.818Z,6.27
2018-04-09T03:44:09.027Z,6.97
2018-04-09T03:46:37.401Z,7.35
2018-04-09T03:49:06.599Z,8.00
2018-04-09T03:51:35.364Z,21.02
2018-04-09T03:54:04.859Z,26.60
2018-04-09T03:56:33.542Z,30.43
2018-04-09T03:59:02.262Z,20.93
2018-04-09T04:01:30.703Z,19.97
2018-04-09T04:03:59.418Z,18.57
2018-04-09T04:06:28.099Z,16.40
2018-04-09T04:08:57.298Z,14.80
2018-04-09T04:11:26.009Z,10.80
2018-04-09T04:13:54.570Z,11.47
2018-04-09T04:16:34.061Z,11.43
2018-04-09T04:19:13.637Z,9.90
2018-04-09T04:21:46.350Z,10.30
2018-04-09T04:24:14.902Z,11.90
2018-04-09T04:26:44.297Z,11.40
2018-04-09T04:29:13.123Z,10.60
2018-04-09T04:31:41.553Z,11.67
2018-04-09T04:34:09.990Z,12.50
2018-04-09T04:36:38.434Z,11.40
2018-04-09T04:39:07.654Z,13.27
2018-04-09T04:41:36.399Z,14.57
2018-04-09T04:44:05.054Z,14.30
2018-04-09T04:46:34.183Z,14.32
2018-04-09T04:49:03.389Z,13.70
2018-04-09T04:51:32.591Z,14.80
2018-04-09T04:54:01.821Z,13.73
2018-04-09T04:56:30.261Z,14.10
2018-04-09T04:58:59.177Z,12.73
2018-04-09T05:01:27.879Z,14.30
2018-04-09T05:03:56.515Z,12.83
2018-04-09T05:06:25.729Z,13.50
2018-04-09T05:08:55.039Z,14.43
2018-04-09T05:11:23.746Z,12.70
2018-04-09T05:13:52.193Z,10.13
2018-04-09T05:16:20.911Z,10.60
2018-04-09T05:18:49.348Z,9.60
2018-04-09T05:21:17.979Z,9.40
2018-04-09T05:23:46.407Z,11.43
2018-04-09T05:26:15.919Z,9.57
2018-04-09T05:28:44.490Z,8.37
2018-04-09T05:31:13.211Z,9.13
2018-04-09T05:33:41.734Z,10.30
2018-04-09T05:36:10.616Z,9.57
2018-04-09T05:38:39.218Z,9.00
2018-04-09T05:41:07.935Z,9.98
2018-04-09T05:43:36.366Z,9.83
2018-04-09T05:46:04.804Z,8.13
2018-04-09T05:48:33.239Z,8.47
2018-04-09T05:51:01.821Z,8.13
2018-04-09T05:53:30.356Z,7.63
2018-04-09T05:55:59.616Z,7.70
2018-04-09T05:58:28.336Z,7.80
2018-04-09T06:00:56.691Z,7.10
2018-04-09T06:03:25.897Z,6.30
2018-04-09T06:05:54.627Z,7.15
2018-04-09T06:08:23.081Z,6.97
2018-04-09T06:10:51.555Z,6.60
2018-04-09T06:13:20.347Z,5.57
2018-04-09T06:15:49.071Z,6.47
2018-04-09T06:18:17.505Z,6.53
2018-04-09T06:20:46.981Z,5.87
2018-04-09T06:23:15.804Z,6.10
2018-04-09T06:25:44.247Z,6.10
2018-04-09T06:28:12.735Z,6.78
2018-04-09T06:30:41.935Z,5.90
2018-04-09T06:33:10.595Z,6.20
2018-04-09T06:35:39.087Z,6.07
2018-04-09T06:38:07.562Z,5.60
2018-04-09T06:40:36.870Z,5.13
2018-04-09T06:43:05.731Z,5.83
2018-04-09T06:45:34.178Z,5.90
2018-04-09T06:48:03.439Z,5.73
2018-04-09T06:50:32.407Z,5.57
2018-04-09T06:53:00.843Z,5.60
2018-04-09T06:55:30.095Z,6.07
2018-04-09T06:57:59.062Z,4.87
2018-04-09T07:00:27.270Z,5.13
2018-04-09T07:02:56.462Z,4.90
2018-04-09T07:05:24.947Z,5.30
2018-04-09T07:07:54.094Z,5.47
2018-04-09T07:10:22.806Z,4.78
2018-04-09T07:12:51.550Z,4.93
2018-04-09T07:15:20.017Z,5.80
2018-04-09T07:17:48.458Z,4.20
2018-04-09T07:20:17.168Z,5.25
2018-04-09T07:22:46.588Z,4.67
2018-04-09T07:25:15.022Z,5.70
2018-04-09T07:27:43.661Z,5.20
2018-04-09T07:30:13.029Z,4.40
2018-04-09T07:32:41.990Z,4.20
2018-04-09T07:35:10.698Z,4.83
2018-04-09T07:37:39.994Z,4.97
2018-04-09T07:40:09.846Z,4.80
2018-04-09T07:42:39.146Z,4.30
2018-04-09T07:45:07.571Z,5.30
2018-04-09T07:47:36.298Z,7.43
2018-04-09T07:50:05.002Z,6.10
2018-04-09T07:52:33.446Z,7.37
2018-04-09T07:55:02.370Z,5.10
2018-04-09T07:57:30.817Z,5.73
2018-04-09T07:59:59.293Z,5.87
2018-04-09T08:02:28.903Z,4.37
2018-04-09T08:04:58.297Z,5.00
2018-04-09T08:07:26.734Z,5.37
2018-04-09T08:09:55.390Z,4.50
2018-04-09T08:12:23.829Z,4.27
2018-04-09T08:14:52.533Z,4.10
2018-04-09T08:17:21.741Z,4.30
2018-04-09T08:19:50.174Z,3.90
2018-04-09T08:22:18.885Z,3.90
2018-04-09T08:24:47.591Z,4.45
2018-04-09T08:27:16.033Z,4.30
2018-04-09T08:29:44.247Z,4.13
2018-04-09T08:32:13.131Z,4.30
2018-04-09T08:34:41.571Z,4.07
2018-04-09T08:37:10.031Z,4.40
2018-04-09T08:39:38.866Z,5.13
2018-04-09T08:42:08.036Z,4.73
2018-04-09T08:44:36.982Z,3.97
2018-04-09T08:47:05.751Z,5.10
2018-04-09T08:49:34.179Z,4.27
2018-04-09T08:52:02.619Z,5.20
2018-04-09T08:54:31.282Z,4.87
2018-04-09T08:57:00.406Z,5.93
2018-04-09T08:59:28.847Z,6.73
2018-04-09T09:01:57.501Z,5.37
2018-04-09T09:04:25.605Z,6.20
2018-04-09T09:06:54.302Z,5.90
2018-04-09T09:09:22.854Z,5.80
2018-04-09T09:11:51.170Z,5.63
2018-04-09T09:14:19.738Z,6.67
2018-04-09T09:16:48.206Z,5.20
2018-04-09T09:19:17.418Z,6.77
2018-04-09T09:21:46.442Z,5.37
2018-04-09T09:24:16.359Z,5.40
2018-04-09T09:26:46.438Z,5.30
2018-04-09T09:29:15.677Z,6.33
2018-04-09T09:31:44.110Z,5.00
2018-04-09T09:34:12.826Z,6.87
2018-04-09T09:36:41.393Z,6.60
2018-04-09T09:39:10.108Z,7.03
2018-04-09T09:41:38.810Z,4.87
2018-04-09T09:44:07.242Z,5.90
2018-04-09T09:46:36.450Z,6.60
2018-04-09T09:49:04.885Z,4.90
2018-04-09T09:51:34.224Z,5.57
2018-04-09T09:54:02.897Z,6.40
2018-04-09T09:56:31.297Z,7.10
2018-04-09T09:59:00.102Z,7.77
2018-04-09T10:01:28.589Z,6.78
2018-04-09T10:03:57.085Z,6.33
2018-04-09T10:06:25.914Z,5.67
2018-04-09T10:08:55.133Z,5.10
2018-04-09T10:11:23.767Z,5.37
2018-04-09T10:13:52.499Z,3.23
2018-04-09T10:16:21.210Z,2.97
2018-04-09T10:18:49.650Z,3.60
2018-04-09T10:21:17.858Z,3.60
2018-04-09T10:23:46.282Z,2.53
2018-04-09T10:26:15.801Z,2.10
2018-04-09T10:28:44.991Z,4.00
2018-04-09T10:31:13.703Z,3.17
2018-04-09T10:33:42.378Z,2.73
2018-04-09T10:36:11.083Z,3.45
2018-04-09T10:38:39.714Z,2.90
2018-04-09T10:41:08.146Z,2.83
2018-04-09T10:43:36.582Z,2.70
2018-04-09T10:46:05.294Z,2.50
2018-04-09T10:48:33.738Z,3.70
2018-04-09T10:51:02.425Z,2.40
2018-04-09T10:53:31.130Z,2.40
2018-04-09T10:56:00.326Z,2.80
2018-04-09T10:58:29.526Z,3.23
2018-04-09T11:00:58.243Z,2.80
2018-04-09T11:03:27.718Z,3.00
2018-04-09T11:05:56.428Z,2.70
2018-04-09T11:08:24.954Z,2.70
2018-04-09T11:10:54.170Z,2.73
2018-04-09T11:13:23.370Z,2.80
2018-04-09T11:15:52.092Z,2.37
2018-04-09T11:18:20.326Z,3.27
2018-04-09T11:20:49.522Z,2.90
2018-04-09T11:23:18.148Z,2.20
2018-04-09T11:25:46.813Z,3.00
2018-04-09T11:28:15.258Z,2.03
2018-04-09T11:30:43.863Z,3.43
2018-04-09T11:33:12.345Z,2.80
2018-04-09T11:35:40.575Z,2.93
2018-04-09T11:38:09.280Z,2.30
2018-04-09T11:40:37.972Z,2.47
2018-04-09T11:43:06.409Z,2.40
2018-04-09T11:45:35.236Z,2.20
2018-04-09T11:48:03.940Z,2.58
2018-04-09T11:50:32.383Z,2.50
2018-04-09T11:53:01.128Z,2.00
2018-04-09T11:55:29.802Z,2.23
2018-04-09T11:57:59.321Z,1.70
2018-04-09T12:00:28.189Z,1.95
2018-04-09T12:02:56.625Z,2.27
2018-04-09T12:05:25.345Z,2.43
2018-04-09T12:07:53.924Z,1.93
2018-04-09T12:10:22.709Z,2.07
2018-04-09T12:12:52.637Z,2.25
2018-04-09T12:15:21.084Z,2.30
2018-04-09T12:17:50.285Z,2.37
2018-04-09T12:20:18.721Z,2.50
2018-04-09T12:22:47.527Z,2.43
2018-04-09T12:25:16.253Z,2.50
2018-04-09T12:27:44.952Z,3.03
2018-04-09T12:30:13.394Z,2.50
2018-04-09T12:32:42.242Z,2.30
2018-04-09T12:35:10.686Z,2.37
2018-04-09T12:37:40.205Z,2.40
2018-04-09T12:40:08.533Z,2.17
2018-04-09T12:42:36.986Z,2.00
2018-04-09T12:45:06.235Z,2.22
2018-04-09T12:47:34.669Z,1.83
2018-04-09T12:50:03.093Z,2.00
2018-04-09T12:52:31.607Z,1.80
2018-04-09T12:55:00.285Z,1.80
2018-04-09T12:57:28.841Z,2.33
2018-04-09T12:59:57.532Z,1.70
2018-04-09T13:02:26.024Z,1.90
2018-04-09T13:04:55.401Z,2.47
2018-04-09T13:07:23.870Z,1.80
2018-04-09T13:09:52.576Z,2.00
2018-04-09T13:12:21.067Z,1.77
2018-04-09T13:14:49.638Z,1.73
2018-04-09T13:17:18.374Z,1.50
2018-04-09T13:19:47.031Z,1.80
2018-04-09T13:22:15.672Z,1.87
2018-04-09T13:24:44.244Z,1.57
2018-04-09T13:27:12.957Z,1.45
2018-04-09T13:29:42.153Z,1.60
2018-04-09T13:32:11.386Z,1.77
2018-04-09T13:34:40.655Z,1.10
2018-04-09T13:37:09.280Z,1.60
2018-04-09T13:39:37.932Z,1.30
2018-04-09T13:42:07.188Z,1.80
2018-04-09T13:44:35.784Z,1.80
2018-04-09T13:47:04.240Z,1.13
2018-04-09T13:49:32.940Z,1.30
2018-04-09T13:52:01.566Z,1.83
2018-04-09T13:54:31.472Z,1.40
2018-04-09T13:57:00.864Z,1.47
2018-04-09T13:59:30.079Z,1.57
2018-04-09T14:01:58.820Z,1.20
2018-04-09T14:04:27.256Z,1.37
2018-04-09T14:06:55.683Z,1.50
2018-04-09T14:09:24.616Z,1.35
2018-04-09T14:11:53.303Z,1.20
2018-04-09T14:14:21.740Z,1.53
2018-04-09T14:16:50.244Z,1.50
2018-04-09T14:19:19.455Z,1.60
2018-04-09T14:21:47.884Z,1.30
2018-04-09T14:24:16.589Z,1.30
2018-04-09T14:26:45.015Z,1.23
2018-04-09T14:29:13.717Z,1.87
2018-04-09T14:31:43.464Z,1.30
2018-04-09T14:34:11.993Z,1.40
2018-04-09T14:36:40.856Z,1.70
2018-04-09T14:39:10.053Z,1.97
2018-04-09T14:41:38.504Z,1.83
2018-04-09T14:44:08.452Z,1.40
2018-04-09T14:46:37.659Z,1.33
2018-04-09T14:49:06.427Z,1.23
2018-04-09T14:51:35.313Z,1.83
2018-04-09T14:54:04.235Z,1.70
2018-04-09T14:56:32.683Z,2.13
2018-04-09T14:59:01.917Z,2.07
2018-04-09T15:01:30.339Z,2.70
2018-04-09T15:03:58.784Z,2.53
2018-04-09T15:06:27.915Z,2.70
2018-04-09T15:08:56.616Z,1.80
2018-04-09T15:11:25.820Z,2.37
2018-04-09T15:13:55.050Z,3.40
2018-04-09T15:16:23.544Z,2.47
2018-04-09T15:18:51.981Z,2.90
2018-04-09T15:21:20.963Z,2.63
2018-04-09T15:23:49.613Z,2.97
2018-04-09T15:26:18.054Z,3.50
2018-04-09T15:28:46.737Z,2.83
2018-04-09T15:31:15.214Z,3.40
2018-04-09T15:33:43.805Z,3.47
2018-04-09T15:36:13.311Z,3.10
2018-04-09T15:38:42.063Z,3.00
2018-04-09T15:41:10.600Z,3.00
2018-04-09T15:43:39.031Z,3.30
2018-04-09T15:46:07.732Z,3.17
2018-04-09T15:48:36.207Z,2.77
2018-04-09T15:51:04.643Z,2.77
2018-04-09T15:53:33.082Z,2.90
2018-04-09T15:56:01.516Z,2.43
2018-04-09T15:58:31.032Z,2.27
2018-04-09T16:01:00.236Z,2.80
2018-04-09T16:03:29.217Z,2.50
2018-04-09T16:05:58.100Z,2.20
2018-04-09T16:08:26.794Z,2.55
2018-04-09T16:10:55.984Z,2.90
2018-04-09T16:13:24.445Z,2.47
2018-04-09T16:15:52.875Z,1.83
2018-04-09T16:18:21.319Z,2.10
2018-04-09T16:20:49.722Z,2.53
2018-04-09T16:23:18.433Z,1.92
2018-04-09T16:25:46.878Z,1.77
2018-04-09T16:28:15.585Z,2.85
2018-04-09T16:30:44.020Z,2.90
2018-04-09T16:33:12.606Z,2.42
2018-04-09T16:35:41.075Z,1.93
2018-04-09T16:38:09.726Z,2.43
2018-04-09T16:40:37.718Z,2.43
2018-04-09T16:43:06.159Z,2.47
2018-04-09T16:45:34.586Z,2.47
2018-04-09T16:48:03.792Z,2.30
2018-04-09T16:50:32.508Z,2.67
2018-04-09T16:53:01.209Z,1.70
2018-04-09T16:55:29.876Z,1.80
2018-04-09T16:57:59.698Z,2.25
2018-04-09T17:00:28.129Z,2.23
2018-04-09T17:02:56.841Z,2.45
2018-04-09T17:05:25.553Z,2.43
2018-04-09T17:07:54.139Z,3.03
2018-04-09T17:10:22.672Z,2.17
2018-04-09T17:12:50.871Z,2.13
2018-04-09T17:15:19.585Z,1.90
2018-04-09T17:17:48.102Z,1.80
2018-04-09T17:20:16.699Z,1.80
2018-04-09T17:22:45.226Z,1.87
2018-04-09T17:25:14.148Z,1.50
2018-04-09T17:27:42.690Z,2.27
2018-04-09T17:30:10.995Z,1.80
2018-04-09T17:32:39.419Z,1.53
2018-04-09T17:35:08.126Z,1.67
2018-04-09T17:37:36.565Z,1.70
2018-04-09T17:40:04.765Z,1.77
2018-04-09T17:42:34.237Z,1.90
2018-04-09T17:45:03.333Z,1.80
2018-04-09T17:47:32.657Z,2.03
2018-04-09T17:50:01.152Z,2.00
2018-04-09T17:52:29.876Z,1.87
2018-04-09T17:54:58.576Z,1.73
2018-04-09T17:57:27.847Z,1.70
2018-04-09T17:59:57.317Z,1.83
2018-04-09T18:02:26.010Z,2.30
2018-04-09T18:04:54.535Z,1.40
2018-04-09T18:07:22.964Z,1.67
2018-04-09T18:09:51.430Z,1.73
2018-04-09T18:12:20.041Z,1.93
2018-04-09T18:14:48.732Z,1.90
2018-04-09T18:17:17.540Z,1.98
2018-04-09T18:19:46.284Z,1.90
2018-04-09T18:22:14.992Z,2.00
2018-04-09T18:24:43.512Z,2.40
2018-04-09T18:27:12.206Z,1.98
2018-04-09T18:29:41.764Z,1.83
2018-04-09T18:32:10.319Z,2.23
2018-04-09T18:34:39.276Z,1.98
2018-04-09T18:37:07.714Z,1.93
2018-04-09T18:39:36.412Z,3.30
2018-04-09T18:42:05.892Z,2.47
2018-04-09T18:44:34.652Z,1.90
2018-04-09T18:47:03.969Z,1.97
2018-04-09T18:49:32.680Z,2.22
2018-04-09T18:52:02.143Z,2.50
2018-04-09T18:54:30.815Z,2.00
2018-04-09T18:56:59.515Z,2.25
2018-04-09T18:59:28.932Z,1.90
2018-04-09T19:01:57.558Z,2.40
2018-04-09T19:04:25.998Z,2.30
2018-04-09T19:06:54.699Z,2.75
2018-04-09T19:09:23.697Z,2.30
2018-04-09T19:11:52.198Z,2.43
2018-04-09T19:14:20.684Z,2.30
2018-04-09T19:16:49.149Z,1.67
2018-04-09T19:19:17.791Z,2.47
2018-04-09T19:21:46.489Z,2.05
2018-04-09T19:24:14.947Z,2.00
2018-04-09T19:26:44.321Z,2.47
2018-04-09T19:29:13.075Z,2.53
2018-04-09T19:31:41.527Z,2.17
2018-04-09T19:34:09.957Z,2.10
2018-04-09T19:36:43.938Z,2.10
2018-04-09T19:39:17.749Z,1.80
2018-04-09T19:41:46.221Z,2.60
2018-04-09T19:44:14.653Z,2.47
2018-04-09T19:46:43.084Z,2.10
2018-04-09T19:49:11.536Z,2.40
2018-04-09T19:51:40.959Z,2.50
2018-04-09T19:54:09.384Z,2.70
2018-04-09T19:56:38.153Z,3.40
2018-04-09T19:59:06.904Z,2.40
2018-04-09T20:01:35.616Z,2.55
2018-04-09T20:04:03.712Z,3.00
2018-04-09T20:06:33.144Z,2.20
2018-04-09T20:09:02.331Z,2.50
2018-04-09T20:11:31.545Z,2.93
2018-04-09T20:13:59.985Z,2.70
2018-04-09T20:16:28.420Z,3.50
2018-04-09T20:18:57.207Z,2.80
2018-04-09T20:21:26.273Z,3.03
2018-04-09T20:23:55.294Z,2.67
2018-04-09T20:26:23.733Z,3.13
2018-04-09T20:28:52.928Z,2.80
2018-04-09T20:31:21.641Z,2.33
2018-04-09T20:33:50.396Z,2.23
2018-04-09T20:36:18.858Z,2.57
2018-04-09T20:38:47.580Z,2.42
2018-04-09T20:41:16.789Z,2.93
2018-04-09T20:43:45.284Z,2.50
2018-04-09T20:46:14.728Z,2.90
2018-04-09T20:48:43.428Z,2.42
2018-04-09T20:51:11.860Z,2.33
2018-04-09T20:53:40.288Z,2.63
2018-04-09T20:56:08.986Z,2.92
2018-04-09T20:58:37.688Z,3.05
2018-04-09T21:01:06.372Z,2.90
2018-04-09T21:03:34.803Z,2.73
2018-04-09T21:06:03.243Z,2.10
2018-04-09T21:08:31.677Z,2.57
2018-04-09T21:11:01.643Z,3.00
2018-04-09T21:13:30.089Z,2.70
2018-04-09T21:15:59.285Z,2.50
2018-04-09T21:18:27.993Z,2.53
2018-04-09T21:20:56.428Z,2.03
2018-04-09T21:23:25.633Z,2.57
2018-04-09T21:25:54.053Z,2.60
2018-04-09T21:28:22.488Z,2.60
2018-04-09T21:30:51.681Z,2.55
2018-04-09T21:33:20.117Z,2.80
2018-04-09T21:35:48.540Z,2.80
2018-04-09T21:38:17.761Z,2.37
2018-04-09T21:40:46.456Z,2.90
2018-04-09T21:43:15.157Z,3.25
2018-04-09T21:45:43.580Z,2.87
2018-04-09T21:48:13.115Z,3.10
2018-04-09T21:50:41.572Z,3.27
2018-04-09T21:53:10.184Z,3.00
2018-04-09T21:55:38.698Z,3.17
2018-04-09T21:58:07.134Z,3.30
2018-04-09T22:00:36.337Z,3.00
2018-04-09T22:03:05.026Z,3.10
2018-04-09T22:05:33.740Z,4.20
2018-04-09T22:08:02.171Z,3.77
2018-04-09T22:10:31.403Z,2.87
2018-04-09T22:12:59.827Z,3.30
2018-04-09T22:15:29.127Z,3.00
2018-04-09T22:17:57.775Z,2.80
2018-04-09T22:20:26.220Z,2.93
2018-04-09T22:22:55.428Z,3.27
2018-04-09T22:25:24.313Z,4.13
2018-04-09T22:27:52.581Z,2.90
2018-04-09T22:30:22.617Z,3.00
2018-04-09T22:32:51.376Z,2.93
2018-04-09T22:35:20.257Z,2.97
2018-04-09T22:37:49.740Z,3.07
2018-04-09T22:40:18.169Z,2.57
2018-04-09T22:42:46.913Z,3.30
2018-04-09T22:45:15.908Z,2.90
2018-04-09T22:47:44.536Z,3.60
2018-04-09T22:50:14.016Z,2.97
2018-04-09T22:52:43.004Z,3.65
2018-04-09T22:55:11.972Z,3.03
2018-04-09T22:57:40.448Z,3.40
2018-04-09T23:00:08.221Z,3.10
2018-04-09T23:02:36.848Z,3.33
2018-04-09T23:05:05.341Z,3.03
2018-04-09T23:07:34.296Z,3.70
2018-04-09T23:10:02.992Z,3.00
2018-04-09T23:12:32.192Z,3.37
2018-04-09T23:15:01.160Z,3.37
2018-04-09T23:17:29.584Z,3.30
2018-04-09T23:19:58.136Z,2.50
2018-04-09T23:22:35.755Z,3.40
2018-04-09T23:25:05.261Z,2.90
2018-04-09T23:27:33.741Z,2.50
2018-04-09T23:30:02.167Z,2.53
2018-04-09T23:32:30.882Z,2.80
2018-04-09T23:35:00.207Z,3.63
2018-04-09T23:37:28.755Z,2.60
2018-04-09T23:39:57.239Z,2.63
2018-04-09T23:42:25.923Z,3.42
2018-04-09T23:44:54.637Z,2.90
2018-04-09T23:47:23.327Z,2.87
2018-04-09T23:49:51.971Z,2.20
2018-04-09T23:52:21.792Z,2.57
2018-04-09T23:54:51.458Z,3.20
2018-04-09T23:57:20.154Z,2.83
2018-04-09T23:59:48.594Z,3.13
